Terminal Aerodrome Forecast
Issued by NWS

Current Version | Previous Version | Text Only | Print | Product List | Glossary On
Versions: 1 2 3 4 5 6 7 8 9 10 11 12 13 14 15 16 17 18 19 20 21 22 23 24 25 26 27 28 29 30 31 32 33 34 35 36
000
FTUS41 KBOX 210838 AAM
TAFACK
TAF AMD
KACK 210838Z 2109/2206 00000KT 1SM BR OVC004
     FM211400 18006KT 3/4SM BR BKN003
     FM211800 19011KT 3SM BR BKN008
     FM212200 20010KT P6SM BKN008
     FM220400 21011KT 1/2SM FG BKN008=

USA.gov is the U.S. government's official web portal to all federal, state and local government web resources and services.